sensor_id;sensor_type;location;lat;lon;timestamp;P1;durP1;ratioP1;P2;durP2;ratioP2
22336;SDS011;14992;50.844;4.418;2023-02-15T00:01:51;42.00;;;23.08;;
22336;SDS011;14992;50.844;4.418;2023-02-15T00:04:46;41.38;;;22.27;;
22336;SDS011;14992;50.844;4.418;2023-02-15T00:07:43;41.22;;;22.67;;
22336;SDS011;14992;50.844;4.418;2023-02-15T00:10:25;44.65;;;23.08;;
22336;SDS011;14992;50.844;4.418;2023-02-15T00:13:14;43.30;;;23.45;;
22336;SDS011;14992;50.844;4.418;2023-02-15T00:16:00;41.60;;;22.48;;
22336;SDS011;14992;50.844;4.418;2023-02-15T00:18:48;43.15;;;23.63;;
22336;SDS011;14992;50.844;4.418;2023-02-15T00:21:33;41.53;;;21.42;;
22336;SDS011;14992;50.844;4.418;2023-02-15T00:24:22;40.92;;;21.48;;
22336;SDS011;14992;50.844;4.418;2023-02-15T00:27:05;42.63;;;24.55;;
22336;SDS011;14992;50.844;4.418;2023-02-15T00:29:54;45.22;;;22.17;;
22336;SDS011;14992;50.844;4.418;2023-02-15T00:32:37;38.90;;;21.55;;
22336;SDS011;14992;50.844;4.418;2023-02-15T00:35:25;43.97;;;22.70;;
22336;SDS011;14992;50.844;4.418;2023-02-15T00:38:07;39.53;;;21.70;;
22336;SDS011;14992;50.844;4.418;2023-02-15T00:40:55;37.80;;;22.85;;
22336;SDS011;14992;50.844;4.418;2023-02-15T00:43:39;44.08;;;23.27;;
22336;SDS011;14992;50.844;4.418;2023-02-15T00:46:36;42.97;;;22.67;;
22336;SDS011;14992;50.844;4.418;2023-02-15T00:49:12;38.67;;;20.48;;
22336;SDS011;14992;50.844;4.418;2023-02-15T00:52:07;39.95;;;21.85;;
22336;SDS011;14992;50.844;4.418;2023-02-15T00:54:43;40.97;;;22.63;;
22336;SDS011;14992;50.844;4.418;2023-02-15T00:57:38;38.40;;;19.35;;
22336;SDS011;14992;50.844;4.418;2023-02-15T01:00:14;40.72;;;22.63;;
22336;SDS011;14992;50.844;4.418;2023-02-15T01:03:11;40.17;;;21.58;;
22336;SDS011;14992;50.844;4.418;2023-02-15T01:05:48;47.03;;;24.20;;
22336;SDS011;14992;50.844;4.418;2023-02-15T01:08:45;43.58;;;22.05;;
22336;SDS011;14992;50.844;4.418;2023-02-15T01:11:29;38.67;;;22.98;;
22336;SDS011;14992;50.844;4.418;2023-02-15T01:14:17;41.80;;;22.65;;
22336;SDS011;14992;50.844;4.418;2023-02-15T01:16:59;40.63;;;23.30;;
22336;SDS011;14992;50.844;4.418;2023-02-15T01:19:48;38.58;;;22.00;;
22336;SDS011;14992;50.844;4.418;2023-02-15T01:22:31;39.00;;;20.98;;
22336;SDS011;14992;50.844;4.418;2023-02-15T01:25:19;39.78;;;21.67;;
22336;SDS011;14992;50.844;4.418;2023-02-15T01:28:03;40.40;;;21.85;;
22336;SDS011;14992;50.844;4.418;2023-02-15T01:31:11;40.95;;;21.38;;
22336;SDS011;14992;50.844;4.418;2023-02-15T01:33:54;37.88;;;22.45;;
22336;SDS011;14992;50.844;4.418;2023-02-15T01:36:50;42.33;;;21.15;;
22336;SDS011;14992;50.844;4.418;2023-02-15T01:39:26;36.90;;;21.08;;
22336;SDS011;14992;50.844;4.418;2023-02-15T01:42:23;39.80;;;21.10;;
22336;SDS011;14992;50.844;4.418;2023-02-15T01:45:00;38.30;;;20.50;;
22336;SDS011;14992;50.844;4.418;2023-02-15T01:47:58;39.35;;;21.45;;
22336;SDS011;14992;50.844;4.418;2023-02-15T01:50:36;40.80;;;21.77;;
22336;SDS011;14992;50.844;4.418;2023-02-15T01:53:36;37.17;;;20.05;;
22336;SDS011;14992;50.844;4.418;2023-02-15T01:56:18;37.40;;;20.85;;
22336;SDS011;14992;50.844;4.418;2023-02-15T01:59:16;44.58;;;21.85;;
22336;SDS011;14992;50.844;4.418;2023-02-15T02:02:03;33.90;;;19.33;;
22336;SDS011;14992;50.844;4.418;2023-02-15T02:04:55;40.83;;;19.80;;
22336;SDS011;14992;50.844;4.418;2023-02-15T02:07:43;36.17;;;19.98;;
22336;SDS011;14992;50.844;4.418;2023-02-15T02:13:18;36.33;;;19.92;;
22336;SDS011;14992;50.844;4.418;2023-02-15T02:16:09;34.60;;;18.88;;
22336;SDS011;14992;50.844;4.418;2023-02-15T02:18:59;37.22;;;19.42;;
22336;SDS011;14992;50.844;4.418;2023-02-15T02:22:25;37.95;;;18.98;;
22336;SDS011;14992;50.844;4.418;2023-02-15T02:25:41;35.83;;;18.65;;
22336;SDS011;14992;50.844;4.418;2023-02-15T02:29:11;40.60;;;21.02;;
22336;SDS011;14992;50.844;4.418;2023-02-15T02:32:15;38.63;;;20.75;;
22336;SDS011;14992;50.844;4.418;2023-02-15T02:35:47;36.42;;;20.27;;
22336;SDS011;14992;50.844;4.418;2023-02-15T02:38:40;36.88;;;20.17;;
22336;SDS011;14992;50.844;4.418;2023-02-15T02:41:37;32.10;;;20.13;;
22336;SDS011;14992;50.844;4.418;2023-02-15T02:44:25;40.72;;;20.85;;
22336;SDS011;14992;50.844;4.418;2023-02-15T02:47:20;37.38;;;21.55;;
22336;SDS011;14992;50.844;4.418;2023-02-15T02:50:06;35.72;;;20.17;;
22336;SDS011;14992;50.844;4.418;2023-02-15T02:52:58;35.35;;;22.02;;
22336;SDS011;14992;50.844;4.418;2023-02-15T02:55:43;39.97;;;21.25;;
22336;SDS011;14992;50.844;4.418;2023-02-15T02:58:35;38.72;;;21.48;;
22336;SDS011;14992;50.844;4.418;2023-02-15T03:01:22;36.83;;;21.08;;
22336;SDS011;14992;50.844;4.418;2023-02-15T03:04:22;38.15;;;20.88;;
22336;SDS011;14992;50.844;4.418;2023-02-15T03:07:01;36.15;;;21.52;;
22336;SDS011;14992;50.844;4.418;2023-02-15T03:10:02;35.20;;;20.95;;
22336;SDS011;14992;50.844;4.418;2023-02-15T03:18:30;37.88;;;20.08;;
22336;SDS011;14992;50.844;4.418;2023-02-15T03:21:33;34.60;;;19.80;;
22336;SDS011;14992;50.844;4.418;2023-02-15T03:24:20;40.75;;;21.10;;
22336;SDS011;14992;50.844;4.418;2023-02-15T03:27:14;39.28;;;20.58;;
22336;SDS011;14992;50.844;4.418;2023-02-15T03:30:01;32.60;;;21.05;;
22336;SDS011;14992;50.844;4.418;2023-02-15T03:32:51;40.30;;;21.98;;
22336;SDS011;14992;50.844;4.418;2023-02-15T03:35:36;38.20;;;21.42;;
22336;SDS011;14992;50.844;4.418;2023-02-15T03:38:32;41.70;;;21.17;;
22336;SDS011;14992;50.844;4.418;2023-02-15T03:41:20;36.80;;;21.70;;
22336;SDS011;14992;50.844;4.418;2023-02-15T03:44:15;34.92;;;20.52;;
22336;SDS011;14992;50.844;4.418;2023-02-15T03:47:04;39.05;;;20.63;;
22336;SDS011;14992;50.844;4.418;2023-02-15T03:50:04;36.90;;;20.90;;
22336;SDS011;14992;50.844;4.418;2023-02-15T03:53:03;34.90;;;21.08;;
22336;SDS011;14992;50.844;4.418;2023-02-15T03:56:02;40.17;;;21.48;;
22336;SDS011;14992;50.844;4.418;2023-02-15T03:58:38;40.08;;;21.63;;
22336;SDS011;14992;50.844;4.418;2023-02-15T04:01:55;37.67;;;20.65;;
22336;SDS011;14992;50.844;4.418;2023-02-15T04:04:41;41.78;;;22.15;;
22336;SDS011;14992;50.844;4.418;2023-02-15T04:07:39;39.33;;;22.08;;
22336;SDS011;14992;50.844;4.418;2023-02-15T04:10:21;39.88;;;21.00;;
22336;SDS011;14992;50.844;4.418;2023-02-15T04:13:29;36.22;;;21.08;;
22336;SDS011;14992;50.844;4.418;2023-02-15T04:16:13;36.15;;;20.33;;
22336;SDS011;14992;50.844;4.418;2023-02-15T04:19:01;33.15;;;21.08;;
22336;SDS011;14992;50.844;4.418;2023-02-15T04:22:01;39.78;;;21.27;;
22336;SDS011;14992;50.844;4.418;2023-02-15T04:25:07;37.95;;;21.30;;
22336;SDS011;14992;50.844;4.418;2023-02-15T04:27:53;38.88;;;21.10;;
22336;SDS011;14992;50.844;4.418;2023-02-15T04:30:42;38.85;;;21.02;;
22336;SDS011;14992;50.844;4.418;2023-02-15T04:33:24;40.97;;;22.65;;
22336;SDS011;14992;50.844;4.418;2023-02-15T04:36:13;35.92;;;21.30;;
22336;SDS011;14992;50.844;4.418;2023-02-15T04:38:56;38.55;;;22.70;;
22336;SDS011;14992;50.844;4.418;2023-02-15T04:41:44;42.78;;;23.42;;
22336;SDS011;14992;50.844;4.418;2023-02-15T04:44:28;40.35;;;20.70;;
22336;SDS011;14992;50.844;4.418;2023-02-15T04:47:23;39.05;;;20.33;;
22336;SDS011;14992;50.844;4.418;2023-02-15T04:49:59;36.47;;;21.63;;
22336;SDS011;14992;50.844;4.418;2023-02-15T04:52:56;37.25;;;21.35;;
22336;SDS011;14992;50.844;4.418;2023-02-15T04:55:31;42.42;;;23.55;;
22336;SDS011;14992;50.844;4.418;2023-02-15T04:58:26;40.08;;;21.25;;
22336;SDS011;14992;50.844;4.418;2023-02-15T05:01:02;40.58;;;22.80;;
22336;SDS011;14992;50.844;4.418;2023-02-15T05:03:57;47.17;;;23.08;;
22336;SDS011;14992;50.844;4.418;2023-02-15T05:06:33;41.88;;;22.83;;
22336;SDS011;14992;50.844;4.418;2023-02-15T05:09:29;40.45;;;22.38;;
22336;SDS011;14992;50.844;4.418;2023-02-15T05:12:05;42.13;;;21.67;;
22336;SDS011;14992;50.844;4.418;2023-02-15T05:15:00;37.00;;;21.15;;
22336;SDS011;14992;50.844;4.418;2023-02-15T05:17:36;46.10;;;24.50;;
22336;SDS011;14992;50.844;4.418;2023-02-15T05:20:31;42.80;;;22.80;;
22336;SDS011;14992;50.844;4.418;2023-02-15T05:23:07;41.85;;;23.08;;
22336;SDS011;14992;50.844;4.418;2023-02-15T05:26:04;39.78;;;22.45;;
22336;SDS011;14992;50.844;4.418;2023-02-15T05:28:56;50.47;;;28.15;;
22336;SDS011;14992;50.844;4.418;2023-02-15T05:31:51;41.60;;;23.70;;
22336;SDS011;14992;50.844;4.418;2023-02-15T05:34:27;45.88;;;23.65;;
22336;SDS011;14992;50.844;4.418;2023-02-15T05:37:22;38.90;;;21.48;;
22336;SDS011;14992;50.844;4.418;2023-02-15T05:40:17;40.50;;;23.45;;
22336;SDS011;14992;50.844;4.418;2023-02-15T05:42:54;34.28;;;21.58;;
22336;SDS011;14992;50.844;4.418;2023-02-15T05:45:51;38.92;;;21.58;;
22336;SDS011;14992;50.844;4.418;2023-02-15T05:48:27;43.35;;;23.35;;
22336;SDS011;14992;50.844;4.418;2023-02-15T05:51:22;47.95;;;22.23;;
22336;SDS011;14992;50.844;4.418;2023-02-15T05:53:58;40.10;;;22.23;;
22336;SDS011;14992;50.844;4.418;2023-02-15T05:56:53;47.35;;;22.85;;
22336;SDS011;14992;50.844;4.418;2023-02-15T05:59:30;41.42;;;23.15;;
22336;SDS011;14992;50.844;4.418;2023-02-15T06:02:25;38.28;;;21.38;;
22336;SDS011;14992;50.844;4.418;2023-02-15T06:05:20;39.47;;;21.65;;
22336;SDS011;14992;50.844;4.418;2023-02-15T06:08:15;41.35;;;21.98;;
22336;SDS011;14992;50.844;4.418;2023-02-15T06:10:58;39.60;;;23.73;;
22336;SDS011;14992;50.844;4.418;2023-02-15T06:13:46;42.60;;;23.63;;
22336;SDS011;14992;50.844;4.418;2023-02-15T06:16:29;44.13;;;23.27;;
22336;SDS011;14992;50.844;4.418;2023-02-15T06:19:17;41.65;;;20.92;;
22336;SDS011;14992;50.844;4.418;2023-02-15T06:22:00;48.85;;;23.45;;
22336;SDS011;14992;50.844;4.418;2023-02-15T06:24:48;39.47;;;20.40;;
22336;SDS011;14992;50.844;4.418;2023-02-15T06:27:30;47.28;;;23.08;;
22336;SDS011;14992;50.844;4.418;2023-02-15T06:30:25;46.00;;;22.38;;
22336;SDS011;14992;50.844;4.418;2023-02-15T06:33:02;41.50;;;21.45;;
22336;SDS011;14992;50.844;4.418;2023-02-15T06:35:57;37.65;;;22.73;;
22336;SDS011;14992;50.844;4.418;2023-02-15T06:38:33;40.13;;;21.67;;
22336;SDS011;14992;50.844;4.418;2023-02-15T06:41:28;44.97;;;23.67;;
22336;SDS011;14992;50.844;4.418;2023-02-15T06:44:04;42.22;;;24.40;;
22336;SDS011;14992;50.844;4.418;2023-02-15T06:46:59;42.70;;;23.95;;
22336;SDS011;14992;50.844;4.418;2023-02-15T06:49:36;44.08;;;23.45;;
22336;SDS011;14992;50.844;4.418;2023-02-15T06:52:32;43.78;;;22.95;;
22336;SDS011;14992;50.844;4.418;2023-02-15T06:55:08;50.45;;;25.05;;
22336;SDS011;14992;50.844;4.418;2023-02-15T06:58:03;43.13;;;23.85;;
22336;SDS011;14992;50.844;4.418;2023-02-15T07:00:45;46.13;;;24.10;;
22336;SDS011;14992;50.844;4.418;2023-02-15T07:03:33;49.08;;;24.33;;
22336;SDS011;14992;50.844;4.418;2023-02-15T07:06:17;43.40;;;22.48;;
22336;SDS011;14992;50.844;4.418;2023-02-15T07:09:05;49.03;;;24.38;;
22336;SDS011;14992;50.844;4.418;2023-02-15T07:11:47;45.20;;;24.23;;
22336;SDS011;14992;50.844;4.418;2023-02-15T07:14:52;43.20;;;22.98;;
22336;SDS011;14992;50.844;4.418;2023-02-15T07:17:35;42.85;;;22.52;;
22336;SDS011;14992;50.844;4.418;2023-02-15T07:20:23;41.67;;;22.60;;
22336;SDS011;14992;50.844;4.418;2023-02-15T07:23:07;44.70;;;21.50;;
22336;SDS011;14992;50.844;4.418;2023-02-15T07:26:03;41.72;;;22.70;;
22336;SDS011;14992;50.844;4.418;2023-02-15T07:28:40;45.17;;;22.90;;
22336;SDS011;14992;50.844;4.418;2023-02-15T07:31:35;39.42;;;22.08;;
22336;SDS011;14992;50.844;4.418;2023-02-15T07:34:11;40.67;;;22.30;;
22336;SDS011;14992;50.844;4.418;2023-02-15T07:37:06;50.15;;;23.52;;
22336;SDS011;14992;50.844;4.418;2023-02-15T07:39:43;49.53;;;22.75;;
22336;SDS011;14992;50.844;4.418;2023-02-15T07:42:38;50.03;;;23.95;;
22336;SDS011;14992;50.844;4.418;2023-02-15T07:45:14;52.65;;;23.75;;
22336;SDS011;14992;50.844;4.418;2023-02-15T07:48:09;46.33;;;23.73;;
22336;SDS011;14992;50.844;4.418;2023-02-15T07:51:05;48.90;;;25.40;;
22336;SDS011;14992;50.844;4.418;2023-02-15T07:53:42;50.15;;;23.20;;
22336;SDS011;14992;50.844;4.418;2023-02-15T07:56:39;55.40;;;24.15;;
22336;SDS011;14992;50.844;4.418;2023-02-15T07:59:14;50.10;;;25.58;;
22336;SDS011;14992;50.844;4.418;2023-02-15T08:02:10;40.63;;;21.38;;
22336;SDS011;14992;50.844;4.418;2023-02-15T08:04:46;48.72;;;23.52;;
22336;SDS011;14992;50.844;4.418;2023-02-15T08:07:41;42.33;;;21.48;;
22336;SDS011;14992;50.844;4.418;2023-02-15T08:10:23;47.63;;;22.58;;
22336;SDS011;14992;50.844;4.418;2023-02-15T08:13:33;41.25;;;22.40;;
22336;SDS011;14992;50.844;4.418;2023-02-15T08:16:15;49.00;;;23.25;;
22336;SDS011;14992;50.844;4.418;2023-02-15T08:19:04;52.63;;;23.92;;
22336;SDS011;14992;50.844;4.418;2023-02-15T08:21:48;42.22;;;21.38;;
22336;SDS011;14992;50.844;4.418;2023-02-15T08:24:37;31.63;;;17.58;;
22336;SDS011;14992;50.844;4.418;2023-02-15T08:27:20;38.83;;;20.00;;
22336;SDS011;14992;50.844;4.418;2023-02-15T08:30:13;35.08;;;18.33;;
22336;SDS011;14992;50.844;4.418;2023-02-15T08:32:56;34.00;;;16.83;;
22336;SDS011;14992;50.844;4.418;2023-02-15T08:35:44;32.85;;;18.75;;
22336;SDS011;14992;50.844;4.418;2023-02-15T08:38:27;32.95;;;18.63;;
22336;SDS011;14992;50.844;4.418;2023-02-15T08:41:16;32.97;;;16.73;;
22336;SDS011;14992;50.844;4.418;2023-02-15T08:44:00;29.52;;;16.92;;
22336;SDS011;14992;50.844;4.418;2023-02-15T08:46:46;34.05;;;17.83;;
22336;SDS011;14992;50.844;4.418;2023-02-15T08:49:35;29.52;;;17.15;;
22336;SDS011;14992;50.844;4.418;2023-02-15T08:52:17;33.10;;;17.30;;
22336;SDS011;14992;50.844;4.418;2023-02-15T08:55:05;29.23;;;16.73;;
22336;SDS011;14992;50.844;4.418;2023-02-15T08:57:48;27.15;;;15.07;;
22336;SDS011;14992;50.844;4.418;2023-02-15T09:00:36;29.15;;;14.98;;
22336;SDS011;14992;50.844;4.418;2023-02-15T09:03:21;29.48;;;16.65;;
22336;SDS011;14992;50.844;4.418;2023-02-15T09:06:09;32.28;;;15.30;;
22336;SDS011;14992;50.844;4.418;2023-02-15T09:08:52;28.23;;;14.93;;
22336;SDS011;14992;50.844;4.418;2023-02-15T09:11:42;32.38;;;15.82;;
22336;SDS011;14992;50.844;4.418;2023-02-15T09:14:31;26.08;;;13.75;;
22336;SDS011;14992;50.844;4.418;2023-02-15T09:17:27;26.25;;;14.00;;
22336;SDS011;14992;50.844;4.418;2023-02-15T09:20:05;28.55;;;14.32;;
22336;SDS011;14992;50.844;4.418;2023-02-15T09:23:01;27.77;;;14.80;;
22336;SDS011;14992;50.844;4.418;2023-02-15T09:25:37;29.20;;;13.90;;
22336;SDS011;14992;50.844;4.418;2023-02-15T09:28:32;30.85;;;14.68;;
22336;SDS011;14992;50.844;4.418;2023-02-15T09:31:09;26.17;;;14.88;;
22336;SDS011;14992;50.844;4.418;2023-02-15T09:34:08;24.90;;;14.02;;
22336;SDS011;14992;50.844;4.418;2023-02-15T09:36:45;32.72;;;15.57;;
22336;SDS011;14992;50.844;4.418;2023-02-15T09:39:41;26.50;;;14.55;;
22336;SDS011;14992;50.844;4.418;2023-02-15T09:42:47;27.95;;;14.68;;
22336;SDS011;14992;50.844;4.418;2023-02-15T09:45:56;26.85;;;15.30;;
22336;SDS011;14992;50.844;4.418;2023-02-15T09:49:05;33.83;;;15.25;;
22336;SDS011;14992;50.844;4.418;2023-02-15T09:51:58;31.42;;;15.57;;
22336;SDS011;14992;50.844;4.418;2023-02-15T09:55:14;30.45;;;14.68;;
22336;SDS011;14992;50.844;4.418;2023-02-15T09:58:07;32.55;;;14.80;;
22336;SDS011;14992;50.844;4.418;2023-02-15T10:01:04;29.17;;;14.40;;
22336;SDS011;14992;50.844;4.418;2023-02-15T10:03:55;29.77;;;14.23;;
22336;SDS011;14992;50.844;4.418;2023-02-15T10:07:00;28.83;;;13.90;;
22336;SDS011;14992;50.844;4.418;2023-02-15T10:09:56;30.13;;;15.35;;
22336;SDS011;14992;50.844;4.418;2023-02-15T10:12:59;32.95;;;15.70;;
22336;SDS011;14992;50.844;4.418;2023-02-15T10:15:52;28.27;;;14.40;;
22336;SDS011;14992;50.844;4.418;2023-02-15T10:18:55;32.88;;;15.98;;
22336;SDS011;14992;50.844;4.418;2023-02-15T10:21:49;31.35;;;15.77;;
22336;SDS011;14992;50.844;4.418;2023-02-15T10:25:19;29.77;;;14.80;;
22336;SDS011;14992;50.844;4.418;2023-02-15T10:28:04;31.45;;;16.17;;
22336;SDS011;14992;50.844;4.418;2023-02-15T10:31:01;28.10;;;15.88;;
22336;SDS011;14992;50.844;4.418;2023-02-15T10:33:46;31.50;;;16.83;;
22336;SDS011;14992;50.844;4.418;2023-02-15T10:36:53;28.33;;;15.90;;
22336;SDS011;14992;50.844;4.418;2023-02-15T10:39:42;28.00;;;15.35;;
22336;SDS011;14992;50.844;4.418;2023-02-15T10:42:53;28.38;;;15.45;;
22336;SDS011;14992;50.844;4.418;2023-02-15T10:46:03;29.98;;;14.73;;
22336;SDS011;14992;50.844;4.418;2023-02-15T10:48:54;31.75;;;15.88;;
22336;SDS011;14992;50.844;4.418;2023-02-15T10:52:13;30.25;;;16.05;;
22336;SDS011;14992;50.844;4.418;2023-02-15T10:55:00;31.02;;;16.25;;
22336;SDS011;14992;50.844;4.418;2023-02-15T10:58:06;34.67;;;16.48;;
22336;SDS011;14992;50.844;4.418;2023-02-15T11:00:52;29.27;;;15.95;;
22336;SDS011;14992;50.844;4.418;2023-02-15T11:04:05;29.35;;;16.00;;
22336;SDS011;14992;50.844;4.418;2023-02-15T11:07:06;30.05;;;13.50;;
22336;SDS011;14992;50.844;4.418;2023-02-15T11:10:14;32.22;;;16.33;;
22336;SDS011;14992;50.844;4.418;2023-02-15T11:13:09;33.47;;;18.85;;
22336;SDS011;14992;50.844;4.418;2023-02-15T11:16:02;31.67;;;16.23;;
22336;SDS011;14992;50.844;4.418;2023-02-15T11:18:47;27.38;;;14.43;;
22336;SDS011;14992;50.844;4.418;2023-02-15T11:21:39;30.83;;;16.60;;
22336;SDS011;14992;50.844;4.418;2023-02-15T11:24:24;31.65;;;15.77;;
22336;SDS011;14992;50.844;4.418;2023-02-15T11:27:23;35.10;;;17.35;;
22336;SDS011;14992;50.844;4.418;2023-02-15T11:30:03;29.52;;;15.68;;
22336;SDS011;14992;50.844;4.418;2023-02-15T11:32:59;35.05;;;16.27;;
22336;SDS011;14992;50.844;4.418;2023-02-15T11:35:40;26.73;;;15.70;;
22336;SDS011;14992;50.844;4.418;2023-02-15T11:38:42;28.98;;;16.80;;
22336;SDS011;14992;50.844;4.418;2023-02-15T11:41:21;32.05;;;16.65;;
22336;SDS011;14992;50.844;4.418;2023-02-15T11:44:21;28.02;;;16.92;;
22336;SDS011;14992;50.844;4.418;2023-02-15T11:47:00;29.77;;;16.90;;
22336;SDS011;14992;50.844;4.418;2023-02-15T11:49:56;30.98;;;18.13;;
22336;SDS011;14992;50.844;4.418;2023-02-15T11:52:32;30.75;;;17.85;;
22336;SDS011;14992;50.844;4.418;2023-02-15T11:55:27;33.40;;;15.75;;
22336;SDS011;14992;50.844;4.418;2023-02-15T11:58:13;33.08;;;17.75;;
22336;SDS011;14992;50.844;4.418;2023-02-15T12:01:11;32.30;;;18.08;;
22336;SDS011;14992;50.844;4.418;2023-02-15T12:04:01;32.42;;;19.80;;
22336;SDS011;14992;50.844;4.418;2023-02-15T12:06:54;31.30;;;17.50;;
22336;SDS011;14992;50.844;4.418;2023-02-15T12:09:40;38.17;;;19.23;;
22336;SDS011;14992;50.844;4.418;2023-02-15T12:12:36;34.78;;;18.88;;
22336;SDS011;14992;50.844;4.418;2023-02-15T12:15:19;33.20;;;18.83;;
22336;SDS011;14992;50.844;4.418;2023-02-15T12:18:32;36.05;;;18.15;;
22336;SDS011;14992;50.844;4.418;2023-02-15T12:21:13;34.25;;;19.67;;
22336;SDS011;14992;50.844;4.418;2023-02-15T12:24:14;32.65;;;18.17;;
22336;SDS011;14992;50.844;4.418;2023-02-15T12:26:55;31.40;;;18.27;;
22336;SDS011;14992;50.844;4.418;2023-02-15T12:29:55;34.85;;;18.25;;
22336;SDS011;14992;50.844;4.418;2023-02-15T12:32:34;34.67;;;18.00;;
22336;SDS011;14992;50.844;4.418;2023-02-15T12:35:40;36.72;;;20.98;;
22336;SDS011;14992;50.844;4.418;2023-02-15T12:38:23;37.10;;;19.17;;
22336;SDS011;14992;50.844;4.418;2023-02-15T12:41:21;35.97;;;19.17;;
22336;SDS011;14992;50.844;4.418;2023-02-15T12:44:06;37.35;;;20.80;;
22336;SDS011;14992;50.844;4.418;2023-02-15T12:47:06;36.17;;;20.27;;
22336;SDS011;14992;50.844;4.418;2023-02-15T12:50:06;36.38;;;19.02;;
22336;SDS011;14992;50.844;4.418;2023-02-15T12:53:05;67.60;;;32.55;;
22336;SDS011;14992;50.844;4.418;2023-02-15T12:55:51;39.67;;;18.30;;
22336;SDS011;14992;50.844;4.418;2023-02-15T12:58:42;34.83;;;19.33;;
22336;SDS011;14992;50.844;4.418;2023-02-15T13:01:26;31.65;;;18.52;;
22336;SDS011;14992;50.844;4.418;2023-02-15T13:04:22;31.38;;;18.88;;
22336;SDS011;14992;50.844;4.418;2023-02-15T13:07:12;34.88;;;18.77;;
22336;SDS011;14992;50.844;4.418;2023-02-15T13:10:17;35.80;;;18.75;;
22336;SDS011;14992;50.844;4.418;2023-02-15T13:12:58;32.53;;;18.60;;
22336;SDS011;14992;50.844;4.418;2023-02-15T13:15:55;37.22;;;19.20;;
22336;SDS011;14992;50.844;4.418;2023-02-15T13:18:34;35.95;;;19.33;;
22336;SDS011;14992;50.844;4.418;2023-02-15T13:21:35;31.77;;;17.00;;
22336;SDS011;14992;50.844;4.418;2023-02-15T13:24:15;35.55;;;19.17;;
22336;SDS011;14992;50.844;4.418;2023-02-15T13:27:15;32.40;;;17.80;;
22336;SDS011;14992;50.844;4.418;2023-02-15T13:29:55;32.28;;;18.35;;
22336;SDS011;14992;50.844;4.418;2023-02-15T13:32:54;36.88;;;18.90;;
22336;SDS011;14992;50.844;4.418;2023-02-15T13:35:41;36.72;;;19.85;;
22336;SDS011;14992;50.844;4.418;2023-02-15T13:38:41;35.40;;;18.83;;
22336;SDS011;14992;50.844;4.418;2023-02-15T13:41:46;32.13;;;19.88;;
22336;SDS011;14992;50.844;4.418;2023-02-15T13:44:49;36.00;;;19.65;;
22336;SDS011;14992;50.844;4.418;2023-02-15T13:47:42;38.67;;;20.50;;
22336;SDS011;14992;50.844;4.418;2023-02-15T13:50:51;33.50;;;20.40;;
22336;SDS011;14992;50.844;4.418;2023-02-15T13:53:46;34.60;;;20.45;;
22336;SDS011;14992;50.844;4.418;2023-02-15T13:56:47;40.35;;;20.67;;
22336;SDS011;14992;50.844;4.418;2023-02-15T13:59:38;37.35;;;20.55;;
22336;SDS011;14992;50.844;4.418;2023-02-15T14:02:59;38.72;;;21.52;;
22336;SDS011;14992;50.844;4.418;2023-02-15T14:06:06;34.70;;;19.35;;
22336;SDS011;14992;50.844;4.418;2023-02-15T14:09:17;32.58;;;20.38;;
22336;SDS011;14992;50.844;4.418;2023-02-15T14:15:35;43.30;;;22.10;;
22336;SDS011;14992;50.844;4.418;2023-02-15T14:18:27;41.42;;;19.23;;
22336;SDS011;14992;50.844;4.418;2023-02-15T14:21:25;32.13;;;20.40;;
22336;SDS011;14992;50.844;4.418;2023-02-15T14:24:15;37.33;;;20.70;;
22336;SDS011;14992;50.844;4.418;2023-02-15T14:27:16;42.00;;;21.38;;
22336;SDS011;14992;50.844;4.418;2023-02-15T14:30:12;38.95;;;21.75;;
22336;SDS011;14992;50.844;4.418;2023-02-15T14:33:22;44.15;;;22.80;;
22336;SDS011;14992;50.844;4.418;2023-02-15T14:36:17;42.10;;;21.52;;
22336;SDS011;14992;50.844;4.418;2023-02-15T14:39:17;40.35;;;21.30;;
22336;SDS011;14992;50.844;4.418;2023-02-15T14:42:20;39.05;;;22.02;;
22336;SDS011;14992;50.844;4.418;2023-02-15T14:45:21;42.20;;;21.73;;
22336;SDS011;14992;50.844;4.418;2023-02-15T14:48:07;44.25;;;21.75;;
22336;SDS011;14992;50.844;4.418;2023-02-15T14:51:08;46.33;;;23.75;;
22336;SDS011;14992;50.844;4.418;2023-02-15T14:53:51;40.85;;;23.13;;
22336;SDS011;14992;50.844;4.418;2023-02-15T14:56:39;44.97;;;23.95;;
22336;SDS011;14992;50.844;4.418;2023-02-15T14:59:21;44.45;;;23.42;;
22336;SDS011;14992;50.844;4.418;2023-02-15T15:02:12;40.72;;;22.48;;
22336;SDS011;14992;50.844;4.418;2023-02-15T15:05:02;46.28;;;24.65;;
22336;SDS011;14992;50.844;4.418;2023-02-15T15:07:56;43.60;;;21.48;;
22336;SDS011;14992;50.844;4.418;2023-02-15T15:10:45;39.60;;;22.50;;
22336;SDS011;14992;50.844;4.418;2023-02-15T15:13:37;47.78;;;24.58;;
22336;SDS011;14992;50.844;4.418;2023-02-15T15:26:32;43.72;;;22.95;;
22336;SDS011;14992;50.844;4.418;2023-02-15T15:29:38;42.85;;;24.00;;
22336;SDS011;14992;50.844;4.418;2023-02-15T15:32:22;46.85;;;26.17;;
22336;SDS011;14992;50.844;4.418;2023-02-15T15:35:20;46.78;;;25.23;;
22336;SDS011;14992;50.844;4.418;2023-02-15T15:38:16;55.83;;;28.60;;
22336;SDS011;14992;50.844;4.418;2023-02-15T15:41:30;51.65;;;26.08;;
22336;SDS011;14992;50.844;4.418;2023-02-15T15:47:51;50.53;;;25.85;;
22336;SDS011;14992;50.844;4.418;2023-02-15T15:50:40;44.83;;;25.55;;
22336;SDS011;14992;50.844;4.418;2023-02-15T15:53:38;47.15;;;23.88;;
22336;SDS011;14992;50.844;4.418;2023-02-15T15:56:17;41.25;;;24.10;;
22336;SDS011;14992;50.844;4.418;2023-02-15T15:59:19;51.38;;;26.77;;
22336;SDS011;14992;50.844;4.418;2023-02-15T16:01:56;47.00;;;24.90;;
22336;SDS011;14992;50.844;4.418;2023-02-15T16:05:05;45.67;;;25.20;;
22336;SDS011;14992;50.844;4.418;2023-02-15T16:07:54;53.85;;;26.50;;
22336;SDS011;14992;50.844;4.418;2023-02-15T16:10:36;43.95;;;24.58;;
22336;SDS011;14992;50.844;4.418;2023-02-15T16:13:25;49.00;;;25.08;;
22336;SDS011;14992;50.844;4.418;2023-02-15T16:16:03;45.78;;;25.35;;
22336;SDS011;14992;50.844;4.418;2023-02-15T16:18:58;42.38;;;23.83;;
22336;SDS011;14992;50.844;4.418;2023-02-15T16:21:35;40.53;;;23.52;;
22336;SDS011;14992;50.844;4.418;2023-02-15T16:24:35;42.90;;;22.38;;
22336;SDS011;14992;50.844;4.418;2023-02-15T16:30:35;46.88;;;24.73;;
22336;SDS011;14992;50.844;4.418;2023-02-15T16:33:20;41.95;;;21.42;;
22336;SDS011;14992;50.844;4.418;2023-02-15T16:36:10;48.35;;;24.35;;
22336;SDS011;14992;50.844;4.418;2023-02-15T16:39:06;46.28;;;24.58;;
22336;SDS011;14992;50.844;4.418;2023-02-15T16:41:56;48.40;;;23.80;;
22336;SDS011;14992;50.844;4.418;2023-02-15T16:44:42;46.10;;;23.90;;
22336;SDS011;14992;50.844;4.418;2023-02-15T16:47:36;90.80;;;51.05;;
22336;SDS011;14992;50.844;4.418;2023-02-15T16:50:24;43.60;;;23.08;;
22336;SDS011;14992;50.844;4.418;2023-02-15T16:53:18;46.15;;;24.70;;
22336;SDS011;14992;50.844;4.418;2023-02-15T16:56:05;47.88;;;24.30;;
22336;SDS011;14992;50.844;4.418;2023-02-15T16:59:02;46.25;;;24.67;;
22336;SDS011;14992;50.844;4.418;2023-02-15T17:01:38;48.88;;;25.77;;
22336;SDS011;14992;50.844;4.418;2023-02-15T17:04:37;46.85;;;25.55;;
22336;SDS011;14992;50.844;4.418;2023-02-15T17:07:16;44.92;;;24.52;;
22336;SDS011;14992;50.844;4.418;2023-02-15T17:10:25;51.85;;;26.00;;